Time;durP1;ratioP1;P1;durP2;ratioP2;P2;SDS_P1;SDS_P2;PMS_P1;PMS_P2;Temp;Humidity;BMP_temperature;BMP_pressure;BME280_temperature;BME280_humidity;BME280_pressure;Samples;Min_cycle;Max_cycle;Signal;HPM_P1;HPM_P2
2021/01/11 00:01:09;;;;;;;1999.90;999.90;;;4.30;99.90;;;;;;6237316;23;20020;-94
2021/01/11 00:03:36;;;;;;;1999.90;999.90;;;4.30;99.90;;;;;;6217547;23;20027;-94
2021/01/11 00:06:03;;;;;;;1999.90;999.90;;;4.30;99.90;;;;;;6217235;23;20013;-94
2021/01/11 00:08:30;;;;;;;1999.90;999.90;;;4.30;99.90;;;;;;6217495;23;20490;-93
2021/01/11 00:10:58;;;;;;;1999.90;999.90;;;4.30;99.90;;;;;;6217483;23;20079;-93
2021/01/11 00:13:25;;;;;;;1999.90;999.90;;;4.30;99.90;;;;;;6218537;23;20020;-93
2021/01/11 00:15:53;;;;;;;1999.90;999.90;;;4.30;99.90;;;;;;6218052;23;20024;-93
2021/01/11 00:18:20;;;;;;;1999.90;999.90;;;4.30;99.90;;;;;;6218046;23;20340;-93
2021/01/11 00:20:47;;;;;;;1999.90;999.90;;;4.30;99.90;;;;;;6217352;23;20040;-93
2021/01/11 00:23:15;;;;;;;1999.90;999.90;;;4.30;99.90;;;;;;6218129;23;20104;-93
2021/01/11 00:25:42;;;;;;;1999.90;999.90;;;4.30;99.90;;;;;;6217141;23;20023;-93
2021/01/11 00:28:09;;;;;;;1999.90;999.90;;;4.30;99.90;;;;;;6217188;23;20067;-94
2021/01/11 00:30:36;;;;;;;1999.90;999.90;;;4.30;99.90;;;;;;6217371;23;20017;-93
2021/01/11 00:33:04;;;;;;;1999.90;999.90;;;4.30;99.90;;;;;;6217131;23;20388;-93
2021/01/11 00:35:31;;;;;;;1999.90;999.90;;;4.30;99.90;;;;;;6217190;23;20036;-93
2021/01/11 00:37:58;;;;;;;1999.90;999.90;;;4.30;99.90;;;;;;6215873;23;20459;-93
2021/01/11 00:40:25;;;;;;;1999.90;999.90;;;4.30;99.90;;;;;;6217131;23;20031;-93
2021/01/11 00:42:53;;;;;;;1999.90;999.90;;;4.30;99.90;;;;;;6217459;23;20048;-93
2021/01/11 00:45:20;;;;;;;1999.90;999.90;;;4.40;99.90;;;;;;6218043;23;20079;-92
2021/01/11 00:47:47;;;;;;;1999.90;999.90;;;4.40;99.90;;;;;;6218445;23;20020;-94
2021/01/11 00:50:15;;;;;;;1999.90;999.90;;;4.40;99.90;;;;;;6219503;23;20017;-94
2021/01/11 00:52:42;;;;;;;1999.90;999.90;;;4.40;99.90;;;;;;6224338;23;20090;-94
2021/01/11 00:55:10;;;;;;;1999.90;999.90;;;4.40;99.90;;;;;;6229508;23;20139;-93
2021/01/11 00:57:37;;;;;;;1999.90;999.90;;;4.40;99.90;;;;;;6236178;23;20016;-93
2021/01/11 01:00:07;;;;;;;1999.90;999.90;;;4.40;99.90;;;;;;6232531;23;20020;-94
2021/01/11 01:02:34;;;;;;;1999.90;999.90;;;4.40;99.90;;;;;;6224599;23;20083;-93
2021/01/11 01:05:01;;;;;;;1999.90;999.90;;;4.50;99.90;;;;;;6224628;23;20024;-93
2021/01/11 01:07:29;;;;;;;1999.90;999.90;;;4.50;99.90;;;;;;6217052;23;20507;-93
2021/01/11 01:09:56;;;;;;;1999.90;999.90;;;4.50;99.90;;;;;;6217105;23;20359;-90
2021/01/11 01:12:23;;;;;;;1999.90;999.90;;;4.50;99.90;;;;;;6216921;23;20095;-90
2021/01/11 01:14:50;;;;;;;1999.90;999.90;;;4.40;99.90;;;;;;6216842;23;20085;-90
2021/01/11 01:17:17;;;;;;;1999.90;999.90;;;4.40;99.90;;;;;;6216918;23;20386;-90
2021/01/11 01:19:44;;;;;;;1999.90;999.90;;;4.40;99.90;;;;;;6217125;23;20021;-90
2021/01/11 01:22:11;;;;;;;1999.90;999.90;;;4.40;99.90;;;;;;6216758;23;20388;-92
2021/01/11 01:24:39;;;;;;;1999.90;999.90;;;4.40;99.90;;;;;;6216466;23;20383;-93
2021/01/11 01:27:07;;;;;;;1999.90;999.90;;;4.40;99.90;;;;;;6216651;23;20521;-93
2021/01/11 01:29:34;;;;;;;1999.90;999.90;;;4.40;99.90;;;;;;6216654;23;20051;-92
2021/01/11 01:32:01;;;;;;;1999.90;999.90;;;4.40;99.90;;;;;;6216937;23;20471;-92
2021/01/11 01:34:28;;;;;;;1999.90;999.90;;;4.40;99.90;;;;;;6216882;23;20043;-92
2021/01/11 01:36:55;;;;;;;1999.90;999.90;;;4.40;99.90;;;;;;6217042;23;20028;-92
2021/01/11 01:39:23;;;;;;;1999.90;999.90;;;4.40;99.90;;;;;;6216574;23;20024;-92
2021/01/11 01:41:51;;;;;;;1999.90;999.90;;;4.40;99.90;;;;;;6216870;23;20383;-92
2021/01/11 01:44:18;;;;;;;1999.90;999.90;;;4.40;99.90;;;;;;6216720;23;20059;-92
2021/01/11 01:46:45;;;;;;;1999.90;999.90;;;4.40;99.90;;;;;;6216741;23;20017;-93
2021/01/11 01:49:12;;;;;;;1999.90;999.90;;;4.40;99.90;;;;;;6216593;23;20436;-92
2021/01/11 01:51:41;;;;;;;1999.90;999.90;;;4.40;99.90;;;;;;6216708;23;20020;-93
2021/01/11 01:54:09;;;;;;;1999.90;999.90;;;4.30;99.90;;;;;;6216474;23;20527;-93
2021/01/11 01:56:36;;;;;;;1999.90;999.90;;;4.30;99.90;;;;;;6216676;23;20017;-93
2021/01/11 01:59:04;;;;;;;1999.90;999.90;;;4.30;99.90;;;;;;6216384;23;20087;-92
2021/01/11 02:01:34;;;;;;;1999.90;999.90;;;4.30;99.90;;;;;;6217005;23;20021;-92
2021/01/11 02:04:02;;;;;;;1999.90;999.90;;;4.30;99.90;;;;;;6216881;23;20440;-92
2021/01/11 02:06:34;;;;;;;1999.90;999.90;;;4.30;99.90;;;;;;6217308;23;20305;-93
2021/01/11 02:09:06;;;;;;;1999.90;999.90;;;4.30;99.90;;;;;;6216690;23;20021;-92
2021/01/11 02:11:41;;;;;;;1999.90;999.90;;;4.30;99.90;;;;;;6216831;23;20471;-92
2021/01/11 02:14:24;;;;;;;1999.90;999.90;;;4.40;99.90;;;;;;6216852;23;20083;-92
2021/01/11 02:16:57;;;;;;;1999.90;999.90;;;4.30;99.90;;;;;;6216680;23;20044;-93
2021/01/11 02:19:55;;;;;;;1999.90;999.90;;;4.30;99.90;;;;;;6216060;23;20415;-92
2021/01/11 02:22:27;;;;;;;1999.90;999.90;;;4.30;99.90;;;;;;6215982;23;20087;-92
2021/01/11 02:25:19;;;;;;;1999.90;999.90;;;4.30;99.90;;;;;;6216867;23;20429;-92
2021/01/11 02:27:49;;;;;;;1999.90;999.90;;;4.30;99.90;;;;;;6216884;23;20423;-93
2021/01/11 02:30:35;;;;;;;1999.90;999.90;;;4.30;99.90;;;;;;6217781;23;20067;-93
2021/01/11 02:33:05;;;;;;;1999.90;999.90;;;4.20;99.90;;;;;;6216054;23;20255;-92
2021/01/11 02:35:57;;;;;;;1999.90;999.90;;;4.30;99.90;;;;;;6216013;23;20020;-92
2021/01/11 02:38:25;;;;;;;1999.90;999.90;;;4.30;99.90;;;;;;6215965;23;20036;-92
2021/01/11 02:40:52;;;;;;;1999.90;999.90;;;4.30;99.90;;;;;;6215639;23;20078;-93
2021/01/11 02:43:19;;;;;;;1999.90;999.90;;;4.30;99.90;;;;;;6216619;23;20025;-92
2021/01/11 02:45:48;;;;;;;1999.90;999.90;;;4.30;99.90;;;;;;6215906;23;20021;-94
2021/01/11 02:48:21;;;;;;;1999.90;999.90;;;4.30;99.90;;;;;;6216259;23;20447;-92
2021/01/11 02:51:02;;;;;;;1999.90;999.90;;;4.30;99.90;;;;;;6216388;23;20127;-93
2021/01/11 02:53:37;;;;;;;1999.90;999.90;;;4.20;99.90;;;;;;6216809;23;20024;-92
2021/01/11 02:56:06;;;;;;;;;;;4.20;99.90;;;;;;6216577;23;20017;-93
2021/01/11 02:58:48;;;;;;;1999.90;999.90;;;4.20;99.90;;;;;;6216848;23;20356;-92
2021/01/11 03:01:18;;;;;;;1999.90;999.90;;;4.20;99.90;;;;;;6216088;23;20086;-92
2021/01/11 03:03:48;;;;;;;1999.90;999.90;;;4.20;99.90;;;;;;6216112;23;20020;-92
2021/01/11 03:06:16;;;;;;;1999.90;999.90;;;4.30;99.90;;;;;;6215707;23;20467;-92
2021/01/11 03:08:44;;;;;;;1999.90;999.90;;;4.30;99.90;;;;;;6216100;23;20017;-92
2021/01/11 03:11:11;;;;;;;1999.90;999.90;;;4.30;99.90;;;;;;6215877;23;20020;-92
2021/01/11 03:13:38;;;;;;;1999.90;999.90;;;4.30;99.90;;;;;;6216187;23;20440;-92
2021/01/11 03:16:05;;;;;;;1999.90;999.90;;;4.20;99.90;;;;;;6216035;23;20021;-92
2021/01/11 03:18:34;;;;;;;1999.90;999.90;;;4.30;99.90;;;;;;6216461;23;20016;-92
2021/01/11 03:21:01;;;;;;;1999.90;999.90;;;4.30;99.90;;;;;;6215268;23;20024;-92
2021/01/11 03:23:28;;;;;;;1999.90;999.90;;;4.30;99.90;;;;;;6214834;23;20016;-92
2021/01/11 03:25:55;;;;;;;1999.90;999.90;;;4.30;99.90;;;;;;6214991;23;20029;-92
2021/01/11 03:28:23;;;;;;;1999.90;999.90;;;4.30;99.90;;;;;;6214863;23;20105;-93
2021/01/11 03:30:50;;;;;;;1999.90;999.90;;;4.20;99.90;;;;;;6216681;23;20267;-92
2021/01/11 03:33:22;;;;;;;1999.90;999.90;;;4.20;99.90;;;;;;6227698;23;20027;-96
2021/01/11 03:36:14;;;;;;;1999.90;999.90;;;4.20;99.90;;;;;;6236329;23;20033;-96
2021/01/11 03:38:51;;;;;;;1999.90;999.90;;;4.30;99.90;;;;;;6240665;23;20025;-96
2021/01/11 03:41:47;;;;;;;1999.90;999.90;;;4.20;99.90;;;;;;6240987;23;20021;-96
2021/01/11 03:44:19;;;;;;;1999.90;999.90;;;4.20;99.90;;;;;;6240524;23;20028;-96
2021/01/11 03:46:55;;;;;;;1999.90;999.90;;;4.20;99.90;;;;;;6241374;23;20008;-96
2021/01/11 03:49:59;;;;;;;1999.90;999.90;;;4.20;99.90;;;;;;6239852;23;20080;-96
2021/01/11 03:52:41;;;;;;;1999.90;999.90;;;4.20;99.90;;;;;;6240974;23;20020;-96
2021/01/11 03:55:27;;;;;;;1999.90;999.90;;;4.20;99.90;;;;;;6215873;23;20024;-96
2021/01/11 03:58:10;;;;;;;1999.90;999.90;;;4.20;99.90;;;;;;6238743;23;20012;-96
2021/01/11 04:00:53;;;;;;;1999.90;999.90;;;4.20;99.90;;;;;;6238877;22;20020;-96
2021/01/11 04:03:32;;;;;;;1999.90;999.90;;;4.30;99.90;;;;;;6239358;23;20027;-96
2021/01/11 04:06:07;;;;;;;1999.90;999.90;;;4.30;99.90;;;;;;6242757;23;20064;-96
2021/01/11 04:08:46;;;;;;;1999.90;999.90;;;4.30;99.90;;;;;;6239974;23;20020;-96
2021/01/11 04:11:21;;;;;;;1999.90;999.90;;;4.20;99.90;;;;;;6242712;23;20032;-96
2021/01/11 04:14:03;;;;;;;1999.90;999.90;;;4.20;99.90;;;;;;6239705;23;20021;-96
2021/01/11 04:16:46;;;;;;;1999.90;999.90;;;4.20;99.90;;;;;;6239537;23;20036;-96
2021/01/11 04:19:25;;;;;;;1999.90;999.90;;;4.20;99.90;;;;;;6235383;23;20028;-96
2021/01/11 04:22:07;;;;;;;1999.90;999.90;;;4.20;99.90;;;;;;6240028;23;20021;-96
2021/01/11 04:24:46;;;;;;;1999.90;999.90;;;4.20;99.90;;;;;;6240628;23;20028;-96
2021/01/11 04:27:15;;;;;;;1999.90;999.90;;;4.20;99.90;;;;;;6241170;23;20023;-96
2021/01/11 04:29:44;;;;;;;1999.90;999.90;;;4.20;99.90;;;;;;6235784;23;20020;-96
2021/01/11 04:32:17;;;;;;;1999.90;999.90;;;4.20;99.90;;;;;;6233123;23;20020;-96
2021/01/11 04:38:31;;;;;;;1999.90;999.90;;;4.30;99.90;;;;;;6232027;23;20073;-96
2021/01/11 04:41:04;;;;;;;1999.90;999.90;;;4.20;99.90;;;;;;6232575;23;20387;-96
2021/01/11 04:44:13;;;;;;;1999.90;999.90;;;4.20;99.90;;;;;;6235831;22;20059;-96
2021/01/11 04:56:10;;;;;;;1999.90;999.90;;;4.10;99.90;;;;;;6241659;23;20249;-96
2021/01/11 04:59:01;;;;;;;1999.90;999.90;;;4.10;99.90;;;;;;6239643;23;20052;-96
2021/01/11 05:01:55;;;;;;;1999.90;999.90;;;4.10;99.90;;;;;;6240708;23;20056;-96
2021/01/11 05:04:31;;;;;;;1999.90;999.90;;;4.20;99.90;;;;;;6238853;23;20037;-96
2021/01/11 05:07:15;;;;;;;1999.90;999.90;;;4.20;99.90;;;;;;6239649;23;20068;-96
2021/01/11 05:12:40;;;;;;;1999.90;999.90;;;4.20;99.90;;;;;;6239749;23;20024;-96
2021/01/11 05:15:27;;;;;;;1999.90;999.90;;;4.30;99.90;;;;;;6239841;23;20051;-96
2021/01/11 05:18:09;;;;;;;1999.90;999.90;;;4.30;99.90;;;;;;6234327;23;20023;-96
2021/01/11 05:21:05;;;;;;;1999.90;999.90;;;4.30;99.90;;;;;;6239761;23;20028;-96
2021/01/11 05:23:41;;;;;;;1999.90;999.90;;;4.30;99.90;;;;;;6239689;23;20027;-96
2021/01/11 05:26:43;;;;;;;1999.90;999.90;;;4.30;99.90;;;;;;6239411;23;20047;-96
2021/01/11 05:29:27;;;;;;;1999.90;999.90;;;4.30;99.90;;;;;;6238936;23;20436;-96
2021/01/11 05:32:09;;;;;;;1999.90;999.90;;;4.30;99.90;;;;;;6238346;23;20016;-96
2021/01/11 05:34:52;;;;;;;1999.90;999.90;;;4.20;99.90;;;;;;6238426;23;20021;-96
2021/01/11 05:37:43;;;;;;;1999.90;999.90;;;4.30;99.90;;;;;;6239722;23;20031;-96
2021/01/11 05:40:14;;;;;;;1999.90;999.90;;;4.30;99.90;;;;;;6238849;23;20232;-96
2021/01/11 05:46:21;;;;;;;1999.90;999.90;;;4.30;99.90;;;;;;6235807;23;20013;-96
2021/01/11 05:49:52;;;;;;;1999.90;999.90;;;4.30;99.90;;;;;;6238641;23;20044;-96
2021/01/11 05:52:59;;;;;;;1999.90;999.90;;;4.30;99.90;;;;;;6241138;23;20021;-96
2021/01/11 05:55:40;;;;;;;1999.90;999.90;;;4.40;99.90;;;;;;6239673;23;20032;-96
2021/01/11 05:58:19;;;;;;;1999.90;999.90;;;4.30;99.90;;;;;;6230552;23;20471;-90
2021/01/11 06:00:47;;;;;;;1999.90;999.90;;;4.30;99.90;;;;;;6216205;23;20440;-90
2021/01/11 06:03:16;;;;;;;1999.90;999.90;;;4.30;99.90;;;;;;6217266;23;20409;-90
2021/01/11 06:05:44;;;;;;;1999.90;999.90;;;4.30;99.90;;;;;;6216394;23;20021;-90
2021/01/11 06:08:13;;;;;;;1999.90;999.90;;;4.30;99.90;;;;;;6216508;23;20020;-91
2021/01/11 06:10:43;;;;;;;1999.90;999.90;;;4.30;99.90;;;;;;6216520;23;20016;-90
2021/01/11 06:13:11;;;;;;;1999.90;999.90;;;4.30;99.90;;;;;;6216540;23;20455;-90
2021/01/11 06:15:40;;;;;;;1999.90;999.90;;;4.30;99.90;;;;;;6216434;23;20016;-90
2021/01/11 06:18:11;;;;;;;1999.90;999.90;;;4.30;99.90;;;;;;6216651;23;20021;-91
2021/01/11 06:20:44;;;;;;;1999.90;999.90;;;4.30;99.90;;;;;;6216299;23;20028;-91
2021/01/11 06:23:14;;;;;;;1999.90;999.90;;;4.30;99.90;;;;;;6216330;23;20024;-91
2021/01/11 06:25:46;;;;;;;1999.90;999.90;;;4.30;99.90;;;;;;6216968;23;20055;-91
2021/01/11 06:28:13;;;;;;;1999.90;999.90;;;4.30;99.90;;;;;;6216231;23;20013;-91
2021/01/11 06:30:44;;;;;;;1999.90;999.90;;;4.40;99.90;;;;;;6216105;23;20025;-90
2021/01/11 06:33:14;;;;;;;1999.90;999.90;;;4.30;99.90;;;;;;6216454;23;20023;-90
2021/01/11 06:35:44;;;;;;;1999.90;999.90;;;4.40;99.90;;;;;;6216244;23;20170;-91
2021/01/11 06:38:20;;;;;;;1999.90;999.90;;;4.30;99.90;;;;;;6216254;23;20460;-91
2021/01/11 06:40:49;;;;;;;1999.90;999.90;;;4.40;99.90;;;;;;6217285;23;20059;-92
2021/01/11 06:43:17;;;;;;;1999.90;999.90;;;4.40;99.90;;;;;;6216552;23;20104;-91
2021/01/11 06:45:45;;;;;;;1999.90;999.90;;;4.30;99.90;;;;;;6216091;23;20336;-91
2021/01/11 06:48:14;;;;;;;1999.90;999.90;;;4.40;99.90;;;;;;6216109;23;20047;-90
2021/01/11 06:50:45;;;;;;;1999.90;999.90;;;4.30;99.90;;;;;;6216161;23;20044;-91
2021/01/11 06:53:12;;;;;;;1999.90;999.90;;;4.40;99.90;;;;;;6216202;23;20464;-91
2021/01/11 06:55:39;;;;;;;1999.90;999.90;;;4.40;99.90;;;;;;6216468;23;20024;-91
2021/01/11 06:58:07;;;;;;;1999.90;999.90;;;4.40;99.90;;;;;;6217271;23;20024;-90
2021/01/11 07:00:36;;;;;;;1999.90;999.90;;;4.40;99.90;;;;;;6216768;23;20128;-91
2021/01/11 07:03:07;;;;;;;1999.90;999.90;;;4.40;99.90;;;;;;6216563;23;20025;-91
2021/01/11 07:05:47;;;;;;;1999.90;999.90;;;4.40;99.90;;;;;;6216498;23;20338;-91
2021/01/11 07:08:20;;;;;;;1999.90;999.90;;;4.40;99.90;;;;;;6217853;23;20016;-91
2021/01/11 07:11:02;;;;;;;1999.90;999.90;;;4.40;99.90;;;;;;6218178;23;20201;-91
2021/01/11 07:13:31;;;;;;;1999.90;999.90;;;4.40;99.90;;;;;;6218406;23;20024;-91
2021/01/11 07:16:13;;;;;;;1999.90;999.90;;;4.40;99.90;;;;;;6219244;23;20571;-90
2021/01/11 07:18:55;;;;;;;1999.90;999.90;;;4.40;99.90;;;;;;6218643;23;20328;-91
2021/01/11 07:21:24;;;;;;;1999.90;999.90;;;4.40;99.90;;;;;;6218983;23;20032;-91
2021/01/11 07:23:55;;;;;;;1999.90;999.90;;;4.40;99.90;;;;;;6218430;23;20020;-90
2021/01/11 07:26:24;;;;;;;1999.90;999.90;;;4.40;99.90;;;;;;6220770;23;20325;-91
2021/01/11 07:28:56;;;;;;;1999.90;999.90;;;4.40;99.90;;;;;;6218046;23;20013;-91
2021/01/11 07:31:26;;;;;;;1999.90;999.90;;;4.40;99.90;;;;;;6219778;23;20026;-90
2021/01/11 07:34:01;;;;;;;1999.90;999.90;;;4.40;99.90;;;;;;6220457;23;20032;-91
2021/01/11 07:36:32;;;;;;;1999.90;999.90;;;4.40;99.90;;;;;;6219626;23;20030;-91
2021/01/11 07:39:11;;;;;;;1999.90;999.90;;;4.30;99.90;;;;;;6220522;23;20116;-91
2021/01/11 07:41:40;;;;;;;1999.90;999.90;;;4.40;99.90;;;;;;6219146;23;20082;-91
2021/01/11 07:44:18;;;;;;;1999.90;999.90;;;4.40;99.90;;;;;;6222899;23;20021;-91
2021/01/11 07:46:52;;;;;;;1999.90;999.90;;;4.40;99.90;;;;;;6217767;23;20313;-92
2021/01/11 07:49:20;;;;;;;1999.90;999.90;;;4.40;99.90;;;;;;6218320;23;20016;-93
2021/01/11 07:51:49;;;;;;;1999.90;999.90;;;4.40;99.90;;;;;;6217483;23;20021;-93
2021/01/11 07:54:18;;;;;;;1999.90;999.90;;;4.40;99.90;;;;;;6218030;23;20024;-94
2021/01/11 07:59:41;;;;;;;;;;;4.40;99.90;;;;;;6251041;22;20026;-90
2021/01/11 08:02:11;;;;;;;1999.90;999.90;;;4.40;99.90;;;;;;6248986;23;20330;-92
2021/01/11 08:04:39;;;;;;;1999.90;999.90;;;4.40;99.90;;;;;;6249554;23;20032;-91
2021/01/11 08:07:08;;;;;;;1999.90;999.90;;;4.40;99.90;;;;;;6248400;23;20016;-91
2021/01/11 08:09:37;;;;;;;1999.90;999.90;;;4.40;99.90;;;;;;6248882;23;20028;-91
2021/01/11 08:12:06;;;;;;;1999.90;999.90;;;4.50;99.90;;;;;;6248755;23;20095;-91
2021/01/11 08:14:34;;;;;;;1999.90;999.90;;;4.40;99.90;;;;;;6248042;23;20020;-91
2021/01/11 08:17:01;;;;;;;1999.90;999.90;;;4.40;99.90;;;;;;6247736;23;20012;-90
2021/01/11 08:19:29;;;;;;;1999.90;999.90;;;4.40;99.90;;;;;;6247907;23;20032;-91
2021/01/11 08:21:57;;;;;;;1999.90;999.90;;;4.40;99.90;;;;;;6248544;23;20028;-90
2021/01/11 08:24:25;;;;;;;1999.90;999.90;;;4.50;99.90;;;;;;6248511;23;20440;-91
2021/01/11 08:27:01;;;;;;;1999.90;999.90;;;4.40;99.90;;;;;;6247943;23;20022;-91
2021/01/11 08:29:33;;;;;;;1999.90;999.90;;;4.40;99.90;;;;;;6248169;23;20455;-91
2021/01/11 08:32:01;;;;;;;1999.90;999.90;;;4.40;99.90;;;;;;6247946;23;20070;-90
2021/01/11 08:34:29;;;;;;;1999.90;999.90;;;4.40;99.90;;;;;;6247825;23;20020;-92
2021/01/11 08:36:57;;;;;;;1999.90;999.90;;;4.40;99.90;;;;;;6246899;23;20020;-93
2021/01/11 08:39:24;;;;;;;1999.90;999.90;;;4.40;99.90;;;;;;6247617;23;20047;-93
2021/01/11 08:41:55;;;;;;;1999.90;999.90;;;4.40;99.90;;;;;;6248240;23;20040;-94
2021/01/11 08:44:30;;;;;;;1999.90;999.90;;;4.40;99.90;;;;;;6247248;23;20023;-92
2021/01/11 08:47:04;;;;;;;1999.90;999.90;;;4.40;99.90;;;;;;6247449;23;20019;-93
2021/01/11 08:49:34;;;;;;;1999.90;999.90;;;4.40;99.90;;;;;;6247648;23;20020;-92
2021/01/11 08:52:09;;;;;;;1999.90;999.90;;;4.30;99.90;;;;;;6247749;23;20016;-93
2021/01/11 08:54:37;;;;;;;1999.90;999.90;;;4.30;99.90;;;;;;6247843;23;20020;-93
2021/01/11 08:57:13;;;;;;;1999.90;999.90;;;4.40;99.90;;;;;;6247923;23;20090;-93
2021/01/11 08:59:51;;;;;;;1999.90;999.90;;;4.40;99.90;;;;;;6246796;23;20020;-93
2021/01/11 09:02:44;;;;;;;1999.90;999.90;;;4.40;99.90;;;;;;6247486;23;20028;-93
2021/01/11 09:05:22;;;;;;;1999.90;999.90;;;4.40;99.90;;;;;;6248518;23;20051;-92
2021/01/11 09:08:15;;;;;;;1999.90;999.90;;;4.40;99.90;;;;;;6247307;23;20031;-93
2021/01/11 09:10:44;;;;;;;1999.90;999.90;;;4.30;99.90;;;;;;6247082;23;20023;-94
2021/01/11 09:13:25;;;;;;;1999.90;999.90;;;4.40;99.90;;;;;;6248140;23;20020;-93
2021/01/11 09:15:56;;;;;;;1999.90;999.90;;;4.40;99.90;;;;;;6247601;23;20020;-92
2021/01/11 09:19:17;;;;;;;1999.90;999.90;;;4.40;99.90;;;;;;6247727;23;20012;-93
2021/01/11 09:22:14;;;;;;;1999.90;999.90;;;4.50;99.90;;;;;;6153835;23;20040;-91
2021/01/11 09:24:45;;;;;;;1999.90;999.90;;;4.40;99.90;;;;;;6159557;23;20028;-92
2021/01/11 09:27:32;;;;;;;1999.90;999.90;;;4.40;99.90;;;;;;6248168;23;20016;-93
2021/01/11 09:30:01;;;;;;;1999.90;999.90;;;4.30;99.90;;;;;;6247525;23;20035;-93
2021/01/11 09:32:28;;;;;;;1999.90;999.90;;;4.40;99.90;;;;;;6247960;23;20086;-93
2021/01/11 09:34:55;;;;;;;1999.90;999.90;;;4.40;99.90;;;;;;6248202;23;20020;-93
2021/01/11 09:37:22;;;;;;;1999.90;999.90;;;4.40;99.90;;;;;;6248990;23;20020;-92
2021/01/11 09:39:50;;;;;;;1999.90;999.90;;;4.40;99.90;;;;;;6249921;23;20016;-92
2021/01/11 09:42:20;;;;;;;1999.90;999.90;;;4.50;99.90;;;;;;6256621;23;20020;-93
2021/01/11 09:44:47;;;;;;;1999.90;999.90;;;4.50;99.90;;;;;;6261977;23;20016;-92
2021/01/11 09:47:15;;;;;;;1999.90;999.90;;;4.50;99.90;;;;;;6248283;23;20043;-93
2021/01/11 09:49:42;;;;;;;1999.90;999.90;;;4.50;99.90;;;;;;6247293;23;20020;-93
2021/01/11 09:52:09;;;;;;;1999.90;999.90;;;4.50;99.90;;;;;;6247863;23;20383;-92
2021/01/11 09:54:37;;;;;;;1999.90;999.90;;;4.50;99.90;;;;;;6247326;23;20086;-93
2021/01/11 09:57:09;;;;;;;1999.90;999.90;;;4.50;99.90;;;;;;6246775;23;20016;-93
2021/01/11 09:59:37;;;;;;;1999.90;999.90;;;4.50;99.90;;;;;;6247031;23;20024;-92
2021/01/11 10:02:04;;;;;;;1999.90;999.90;;;4.50;99.90;;;;;;6247185;23;20078;-93
2021/01/11 10:04:32;;;;;;;1999.90;999.90;;;4.60;99.90;;;;;;6247582;23;20400;-92
2021/01/11 10:07:00;;;;;;;1999.90;999.90;;;4.50;99.90;;;;;;6247048;23;20020;-92
2021/01/11 10:09:28;;;;;;;1999.90;999.90;;;4.50;99.90;;;;;;6248127;23;20024;-93
2021/01/11 10:11:57;;;;;;;1999.90;999.90;;;4.60;99.90;;;;;;6249311;23;20078;-93
2021/01/11 10:14:26;;;;;;;1999.90;999.90;;;4.60;99.90;;;;;;6248928;23;20016;-93
2021/01/11 10:16:54;;;;;;;1999.90;999.90;;;4.60;99.90;;;;;;6251989;23;20047;-93
2021/01/11 10:19:23;;;;;;;1999.90;999.90;;;4.60;99.90;;;;;;6252462;23;20020;-93
2021/01/11 10:21:51;;;;;;;1999.90;999.90;;;4.60;99.90;;;;;;6255194;23;20047;-93
2021/01/11 10:24:20;;;;;;;1999.90;999.90;;;4.70;99.90;;;;;;6247569;23;20024;-93
2021/01/11 10:26:48;;;;;;;1999.90;999.90;;;4.70;99.90;;;;;;6246919;23;20047;-94
2021/01/11 10:29:16;;;;;;;1999.90;999.90;;;4.60;99.90;;;;;;6246917;23;20012;-93
2021/01/11 10:31:44;;;;;;;1999.90;999.90;;;4.70;99.90;;;;;;6247110;23;20047;-93
2021/01/11 10:34:12;;;;;;;1999.90;999.90;;;4.70;99.90;;;;;;6246693;23;20123;-92
2021/01/11 10:36:41;;;;;;;1999.90;999.90;;;4.80;99.90;;;;;;6247268;23;20078;-93
2021/01/11 10:39:10;;;;;;;1999.90;999.90;;;4.80;99.90;;;;;;6247458;23;20082;-93
2021/01/11 10:41:37;;;;;;;1999.90;999.90;;;4.80;99.90;;;;;;6247193;23;20317;-93
2021/01/11 10:44:05;;;;;;;1999.90;999.90;;;4.90;99.90;;;;;;6242667;23;20247;-93
2021/01/11 10:46:33;;;;;;;1999.90;999.90;;;4.90;99.90;;;;;;6241007;23;20016;-92
2021/01/11 10:49:00;;;;;;;1999.90;999.90;;;4.90;99.90;;;;;;6249583;23;20016;-93
2021/01/11 10:51:28;;;;;;;1999.90;999.90;;;4.90;99.90;;;;;;6249155;23;20023;-93
2021/01/11 10:53:55;;;;;;;1999.90;999.90;;;4.90;99.90;;;;;;6249427;23;20020;-93
2021/01/11 10:56:33;;;;;;;1999.90;999.90;;;4.90;99.90;;;;;;6248871;23;20020;-93
2021/01/11 10:59:00;;;;;;;1999.90;999.90;;;4.90;99.90;;;;;;6248525;23;20096;-93
2021/01/11 11:01:27;;;;;;;1999.90;999.90;;;5.00;99.90;;;;;;6248849;23;20078;-94
2021/01/11 11:03:54;;;;;;;1999.90;999.90;;;5.00;99.90;;;;;;6248946;23;20020;-92
2021/01/11 11:06:25;;;;;;;1999.90;999.90;;;4.90;99.90;;;;;;6248449;23;20027;-93
2021/01/11 11:08:52;;;;;;;1999.90;999.90;;;4.90;99.90;;;;;;6248235;23;20016;-93
2021/01/11 11:11:19;;;;;;;1999.90;999.90;;;5.00;99.90;;;;;;6248563;23;20024;-93
2021/01/11 11:13:48;;;;;;;1999.90;999.90;;;5.00;99.90;;;;;;6248074;23;20024;-92
2021/01/11 11:16:16;;;;;;;1999.90;999.90;;;5.00;99.90;;;;;;6247594;23;20020;-93
2021/01/11 11:18:43;;;;;;;1999.90;999.90;;;5.00;99.90;;;;;;6247975;23;20040;-93
2021/01/11 11:21:13;;;;;;;1999.90;999.90;;;5.10;99.90;;;;;;6248327;23;20514;-94
2021/01/11 11:23:41;;;;;;;1999.90;999.90;;;5.10;99.90;;;;;;6248456;23;20020;-92
2021/01/11 11:26:10;;;;;;;1999.90;999.90;;;5.10;99.90;;;;;;6248017;23;20103;-94
2021/01/11 11:28:37;;;;;;;1999.90;999.90;;;5.10;99.90;;;;;;6248254;23;20012;-94
2021/01/11 11:31:06;;;;;;;1999.90;999.90;;;5.10;99.90;;;;;;6248143;23;20020;-93
2021/01/11 11:33:51;;;;;;;1999.90;999.90;;;5.10;99.90;;;;;;6248053;23;20040;-93
2021/01/11 11:36:19;;;;;;;1999.90;999.90;;;5.10;99.90;;;;;;6247116;23;20028;-93
2021/01/11 11:38:46;;;;;;;1999.90;999.90;;;5.20;99.90;;;;;;6248127;23;20020;-93
2021/01/11 11:41:13;;;;;;;1999.90;999.90;;;5.20;99.90;;;;;;6246930;23;20020;-94
2021/01/11 11:43:41;;;;;;;1999.90;999.90;;;5.20;99.90;;;;;;6247001;23;20035;-94
2021/01/11 11:46:09;;;;;;;1999.90;999.90;;;5.30;99.90;;;;;;6246770;23;20102;-94
2021/01/11 11:48:38;;;;;;;1999.90;999.90;;;5.20;99.90;;;;;;6246726;23;20474;-94
2021/01/11 11:51:06;;;;;;;1999.90;999.90;;;5.30;99.90;;;;;;6246411;23;20020;-94
2021/01/11 11:53:33;;;;;;;1999.90;999.90;;;5.20;99.90;;;;;;6246736;23;20078;-93
2021/01/11 11:56:00;;;;;;;1999.90;999.90;;;5.20;99.90;;;;;;6245699;23;20052;-94
2021/01/11 11:58:28;;;;;;;1999.90;999.90;;;5.20;99.90;;;;;;6245983;23;20035;-94
2021/01/11 12:00:55;;;;;;;1999.90;999.90;;;5.30;99.90;;;;;;6246868;23;20020;-94
2021/01/11 12:03:23;;;;;;;1999.90;999.90;;;5.30;99.90;;;;;;6247263;23;20020;-93
2021/01/11 12:05:52;;;;;;;1999.90;999.90;;;5.30;99.90;;;;;;6247235;23;20019;-94
2021/01/11 12:08:20;;;;;;;1999.90;999.90;;;5.30;99.90;;;;;;6247109;23;20031;-94
2021/01/11 12:10:47;;;;;;;1999.90;999.90;;;5.40;99.90;;;;;;6247737;23;20439;-94
2021/01/11 12:13:14;;;;;;;1999.90;999.90;;;5.40;99.90;;;;;;6247624;23;20537;-94
2021/01/11 12:15:41;;;;;;;1999.90;999.90;;;5.40;99.90;;;;;;6247671;23;20024;-94
2021/01/11 12:18:08;;;;;;;1999.90;999.90;;;5.50;99.90;;;;;;6247987;23;20047;-93
2021/01/11 12:20:41;;;;;;;1999.90;999.90;;;5.50;99.90;;;;;;6247197;23;20055;-93
2021/01/11 12:23:09;;;;;;;1999.90;999.90;;;5.50;99.90;;;;;;6248249;23;20466;-94
2021/01/11 12:25:36;;;;;;;1999.90;999.90;;;5.50;99.90;;;;;;6251247;23;20027;-96
2021/01/11 12:28:08;;;;;;;1999.90;999.90;;;5.50;99.90;;;;;;6253251;23;20451;-95
2021/01/11 12:30:35;;;;;;;1999.90;999.90;;;5.40;99.90;;;;;;6253404;23;20027;-94
2021/01/11 12:33:02;;;;;;;1999.90;999.90;;;5.40;99.90;;;;;;6250306;23;20027;-95
2021/01/11 12:35:29;;;;;;;1999.90;999.90;;;5.40;99.90;;;;;;6249408;23;20020;-96
2021/01/11 12:37:57;;;;;;;1999.90;999.90;;;5.40;99.90;;;;;;6249407;23;20370;-96
2021/01/11 12:40:25;;;;;;;1999.90;999.90;;;5.40;99.90;;;;;;6248947;23;20047;-95
2021/01/11 12:42:53;;;;;;;1999.90;999.90;;;5.40;99.90;;;;;;6248525;23;20059;-95
2021/01/11 12:45:21;;;;;;;1999.90;999.90;;;5.40;99.90;;;;;;6248497;23;20024;-96
2021/01/11 12:47:48;;;;;;;1999.90;999.90;;;5.50;99.90;;;;;;6248044;23;20087;-95
2021/01/11 12:50:15;;;;;;;1999.90;999.90;;;5.50;99.90;;;;;;6248268;23;20070;-95
2021/01/11 12:52:46;;;;;;;1999.90;999.90;;;5.60;99.90;;;;;;6247880;23;20392;-95
2021/01/11 12:55:18;;;;;;;1999.90;999.90;;;5.50;99.90;;;;;;6248653;23;20336;-96